Time;durP1;ratioP1;P1;durP2;ratioP2;P2;SDS_P1;SDS_P2;PMS_P1;PMS_P2;Temp;Humidity;BMP_temperature;BMP_pressure;BME280_temperature;BME280_humidity;BME280_pressure;Samples;Min_cycle;Max_cycle;Signal;HPM_P1;HPM_P2
2023/08/22 00:02:26;;;;;;;13.02;9.70;;;31.00;49.00;;;;;;6214990;23;20017;-76
2023/08/22 00:04:52;;;;;;;12.48;10.00;;;31.00;48.90;;;;;;6230526;22;20102;-77
2023/08/22 00:07:18;;;;;;;13.98;9.50;;;31.00;49.10;;;;;;6245712;23;20191;-77
2023/08/22 00:09:44;;;;;;;16.15;10.32;;;30.90;48.90;;;;;;6245363;23;20005;-77
2023/08/22 00:12:09;;;;;;;13.75;10.20;;;30.90;48.80;;;;;;6245162;23;20042;-76
2023/08/22 00:14:35;;;;;;;15.05;10.15;;;30.90;48.80;;;;;;6244821;23;20008;-76
2023/08/22 00:17:01;;;;;;;12.73;9.40;;;30.90;48.90;;;;;;6245308;23;20279;-76
2023/08/22 00:19:27;;;;;;;12.93;9.60;;;30.90;48.90;;;;;;6245484;23;20024;-75
2023/08/22 00:21:53;;;;;;;12.40;8.70;;;30.90;48.90;;;;;;6245222;23;20446;-76
2023/08/22 00:24:19;;;;;;;14.13;8.90;;;30.80;48.50;;;;;;6245003;23;20008;-76
2023/08/22 00:26:44;;;;;;;11.15;7.75;;;30.80;48.70;;;;;;6245141;23;20008;-75
2023/08/22 00:29:10;;;;;;;13.68;8.93;;;30.70;48.70;;;;;;6245259;23;19997;-75
2023/08/22 00:31:36;;;;;;;10.75;8.32;;;30.70;48.80;;;;;;6244750;23;20015;-75
2023/08/22 00:34:02;;;;;;;12.82;8.50;;;30.70;48.70;;;;;;6244788;23;20067;-76
2023/08/22 00:36:29;;;;;;;11.15;7.55;;;30.70;48.80;;;;;;6244843;23;20019;-76
2023/08/22 00:38:55;;;;;;;10.75;8.13;;;30.70;48.90;;;;;;6244615;23;20107;-76
2023/08/22 00:41:20;;;;;;;14.05;8.52;;;30.70;48.90;;;;;;6244798;23;20012;-76
2023/08/22 00:43:46;;;;;;;13.82;8.30;;;30.60;48.90;;;;;;6244824;23;20020;-73
2023/08/22 00:46:13;;;;;;;9.82;7.78;;;30.70;49.10;;;;;;6244792;23;20000;-76
2023/08/22 00:48:39;;;;;;;10.20;8.05;;;30.60;49.20;;;;;;6244537;23;19996;-76
2023/08/22 00:51:06;;;;;;;11.77;8.00;;;30.60;49.30;;;;;;6244753;23;20299;-76
2023/08/22 00:53:33;;;;;;;12.88;8.02;;;30.60;49.50;;;;;;6245107;23;20315;-77
2023/08/22 00:55:59;;;;;;;10.23;8.13;;;30.60;49.40;;;;;;6244547;23;20004;-77
2023/08/22 00:58:25;;;;;;;12.18;8.15;;;30.60;49.50;;;;;;6244931;23;20004;-77
2023/08/22 01:00:51;;;;;;;11.25;8.35;;;30.60;49.50;;;;;;6244761;23;20061;-75
2023/08/22 01:03:17;;;;;;;11.82;8.55;;;30.60;49.60;;;;;;6244862;23;20018;-76
2023/08/22 01:05:50;;;;;;;10.52;8.20;;;30.50;49.60;;;;;;6244118;23;20047;-76
2023/08/22 01:08:24;;;;;;;12.07;8.48;;;30.60;50.00;;;;;;6244321;23;20051;-68
2023/08/22 01:10:55;;;;;;;13.52;8.75;;;30.50;49.80;;;;;;6217596;23;20425;-78
2023/08/22 01:13:31;;;;;;;11.60;8.23;;;30.40;50.00;;;;;;6244471;23;20087;-75
2023/08/22 01:15:57;;;;;;;11.40;8.13;;;30.40;48.80;;;;;;6244472;23;20004;-76
2023/08/22 01:18:24;;;;;;;12.15;8.60;;;30.30;50.10;;;;;;6244306;23;20000;-75
2023/08/22 01:20:50;;;;;;;10.63;8.27;;;30.30;50.50;;;;;;6244486;23;20048;-76
2023/08/22 01:23:16;;;;;;;13.60;8.30;;;30.30;50.40;;;;;;6244422;23;20019;-75
2023/08/22 01:25:42;;;;;;;12.15;8.35;;;30.30;50.40;;;;;;6244541;23;20410;-77
2023/08/22 01:28:23;;;;;;;10.55;8.13;;;30.30;50.40;;;;;;6244231;23;20003;-75
2023/08/22 01:31:24;;;;;;;12.13;8.48;;;30.30;50.50;;;;;;6244216;23;20075;-77
2023/08/22 01:33:59;;;;;;;13.55;8.02;;;30.30;49.40;;;;;;6205093;23;20012;-77
2023/08/22 01:36:25;;;;;;;11.23;8.10;;;30.30;50.70;;;;;;6244109;23;20442;-76
2023/08/22 01:38:53;;;;;;;14.15;9.18;;;30.30;51.20;;;;;;6244346;23;20000;-76
2023/08/22 01:41:20;;;;;;;14.30;8.55;;;30.30;51.30;;;;;;6244094;23;20008;-75
2023/08/22 01:43:46;;;;;;;12.70;8.68;;;30.20;51.50;;;;;;6244457;23;20054;-77
2023/08/22 01:46:12;;;;;;;11.25;10.00;;;30.10;51.60;;;;;;6244285;23;20004;-77
2023/08/22 01:48:37;;;;;;;17.17;9.48;;;30.10;51.80;;;;;;6244097;23;20429;-77
2023/08/22 01:51:03;;;;;;;10.45;8.60;;;30.10;52.00;;;;;;6244510;23;20380;-77
2023/08/22 01:53:29;;;;;;;12.50;8.93;;;30.10;52.10;;;;;;6244369;23;20023;-76
2023/08/22 01:56:02;;;;;;;13.85;8.90;;;30.10;52.30;;;;;;6243749;23;20020;-77
2023/08/22 01:58:28;;;;;;;13.95;8.82;;;30.10;52.20;;;;;;6217859;23;20070;-78
2023/08/22 02:00:53;;;;;;;14.13;9.05;;;30.10;52.20;;;;;;6244243;23;20008;-78
2023/08/22 02:03:20;;;;;;;12.48;8.73;;;30.00;53.00;;;;;;6244373;23;20001;-78
2023/08/22 02:05:46;;;;;;;13.10;9.13;;;29.90;52.50;;;;;;6244314;23;20016;-77
2023/08/22 02:08:12;;;;;;;12.55;8.35;;;29.90;52.70;;;;;;6244395;23;20007;-78
2023/08/22 02:10:38;;;;;;;12.10;8.75;;;29.90;52.70;;;;;;6244131;23;20421;-77
2023/08/22 02:13:03;;;;;;;11.25;8.77;;;29.90;52.90;;;;;;6244399;23;20012;-76
2023/08/22 02:15:29;;;;;;;10.88;8.65;;;29.80;53.10;;;;;;6243830;23;20000;-77
2023/08/22 02:17:55;;;;;;;12.40;8.98;;;29.80;53.10;;;;;;6244192;23;20001;-77
2023/08/22 02:20:22;;;;;;;12.30;8.65;;;29.80;53.30;;;;;;6243741;23;20012;-75
2023/08/22 02:22:48;;;;;;;12.27;9.00;;;29.80;53.40;;;;;;6243707;23;20091;-77
2023/08/22 02:25:13;;;;;;;10.35;8.85;;;29.80;53.60;;;;;;6244065;23;20028;-77
2023/08/22 02:27:39;;;;;;;10.82;8.80;;;29.80;53.80;;;;;;6243834;23;20430;-77
2023/08/22 02:30:06;;;;;;;10.40;9.30;;;29.80;54.00;;;;;;6243932;23;20000;-76
2023/08/22 02:32:32;;;;;;;13.50;8.80;;;29.80;53.90;;;;;;6216730;23;20008;-76
2023/08/22 02:34:57;;;;;;;11.20;9.23;;;29.70;54.40;;;;;;6244231;23;20051;-76
2023/08/22 02:37:23;;;;;;;11.50;8.95;;;29.70;54.40;;;;;;6244221;23;20011;-77
2023/08/22 02:39:49;;;;;;;17.33;9.73;;;29.70;54.40;;;;;;6244209;23;20027;-75
2023/08/22 02:42:14;;;;;;;12.55;8.82;;;29.70;54.50;;;;;;6243870;23;20407;-75
2023/08/22 02:44:40;;;;;;;15.18;9.00;;;29.70;54.60;;;;;;6243555;23;20136;-75
2023/08/22 02:47:06;;;;;;;10.52;8.88;;;29.60;54.70;;;;;;6243865;23;20000;-76
2023/08/22 02:49:31;;;;;;;14.50;9.55;;;29.70;54.80;;;;;;6243793;23;20359;-76
2023/08/22 02:51:57;;;;;;;14.77;9.20;;;29.60;54.80;;;;;;6243933;23;20328;-76
2023/08/22 02:54:23;;;;;;;13.82;9.02;;;29.60;55.10;;;;;;6243487;23;20034;-76
2023/08/22 02:56:48;;;;;;;13.23;9.55;;;29.60;54.90;;;;;;6243737;23;20000;-77
2023/08/22 02:59:14;;;;;;;14.65;9.73;;;29.70;55.10;;;;;;6244137;23;20089;-75
2023/08/22 03:01:40;;;;;;;19.38;9.52;;;29.70;55.60;;;;;;6243310;23;20039;-76
2023/08/22 03:04:05;;;;;;;13.65;9.80;;;29.60;55.30;;;;;;6243514;23;20016;-76
2023/08/22 03:06:31;;;;;;;11.48;9.55;;;29.60;55.30;;;;;;6244115;23;20381;-77
2023/08/22 03:08:57;;;;;;;10.93;8.52;;;29.60;55.20;;;;;;6245428;23;20004;-78
2023/08/22 03:11:23;;;;;;;11.57;9.52;;;29.60;55.30;;;;;;6245753;23;20008;-76
2023/08/22 03:13:49;;;;;;;14.23;10.10;;;29.60;55.20;;;;;;6245153;23;20441;-76
2023/08/22 03:16:14;;;;;;;13.68;9.38;;;29.50;55.30;;;;;;6245775;23;20330;-76
2023/08/22 03:18:42;;;;;;;13.10;9.88;;;29.40;55.50;;;;;;6245542;23;20003;-76
2023/08/22 03:21:08;;;;;;;13.80;9.75;;;29.40;55.50;;;;;;6245376;23;20426;-77
2023/08/22 03:23:33;;;;;;;12.23;9.77;;;29.40;55.60;;;;;;6245522;23;20006;-77
2023/08/22 03:26:01;;;;;;;12.20;8.80;;;29.40;55.60;;;;;;6245630;23;20019;-76
2023/08/22 03:28:27;;;;;;;13.55;9.35;;;29.40;55.60;;;;;;6245664;23;20007;-77
2023/08/22 03:30:56;;;;;;;10.70;8.90;;;29.40;55.10;;;;;;6245481;23;20000;-78
2023/08/22 03:33:23;;;;;;;13.07;9.55;;;29.40;54.80;;;;;;6245755;23;20071;-76
2023/08/22 03:35:50;;;;;;;11.25;8.90;;;29.40;54.30;;;;;;6245461;23;20000;-76
2023/08/22 03:38:16;;;;;;;10.75;8.77;;;29.30;54.40;;;;;;6246051;23;20004;-76
2023/08/22 03:40:42;;;;;;;11.68;8.98;;;29.20;54.00;;;;;;6245516;23;20394;-77
2023/08/22 03:43:07;;;;;;;15.43;9.00;;;29.20;54.20;;;;;;6245330;23;20075;-76
2023/08/22 03:45:33;;;;;;;13.48;9.13;;;29.20;53.90;;;;;;6245039;23;20004;-76
2023/08/22 03:48:03;;;;;;;13.60;8.95;;;29.20;53.70;;;;;;6245097;23;20337;-76
2023/08/22 03:50:30;;;;;;;12.55;8.85;;;29.20;53.20;;;;;;6245174;23;20011;-77
2023/08/22 03:52:56;;;;;;;12.20;8.30;;;29.20;53.70;;;;;;6245466;23;20438;-77
2023/08/22 03:55:22;;;;;;;13.18;8.98;;;29.10;53.50;;;;;;6245092;23;19997;-76
2023/08/22 03:57:47;;;;;;;12.90;9.13;;;29.20;53.70;;;;;;6245006;23;20008;-77
2023/08/22 04:00:14;;;;;;;11.90;9.23;;;29.20;53.70;;;;;;6245603;23;20023;-77
2023/08/22 04:02:39;;;;;;;12.05;9.05;;;29.20;53.40;;;;;;6245372;23;20094;-76
2023/08/22 04:05:05;;;;;;;13.02;8.60;;;29.20;53.60;;;;;;6245054;23;20020;-75
2023/08/22 04:07:31;;;;;;;13.77;9.35;;;29.20;53.50;;;;;;6245124;23;20008;-76
2023/08/22 04:09:57;;;;;;;14.20;9.00;;;29.20;53.80;;;;;;6244791;23;19993;-77
2023/08/22 04:12:23;;;;;;;12.32;9.23;;;29.20;53.80;;;;;;6244647;23;20008;-77
2023/08/22 04:14:49;;;;;;;12.27;8.85;;;29.10;53.80;;;;;;6244448;23;20007;-77
2023/08/22 04:17:14;;;;;;;13.10;9.57;;;29.10;53.80;;;;;;6244744;23;19996;-77
2023/08/22 04:19:40;;;;;;;11.85;9.30;;;29.10;53.70;;;;;;6244635;23;20330;-76
2023/08/22 04:22:06;;;;;;;15.27;8.90;;;29.10;53.90;;;;;;6244926;23;20468;-77
2023/08/22 04:24:32;;;;;;;10.80;8.68;;;29.10;54.00;;;;;;6244728;23;19996;-78
2023/08/22 04:26:57;;;;;;;14.80;9.23;;;29.00;54.20;;;;;;6244384;23;20004;-77
2023/08/22 04:29:23;;;;;;;15.20;9.15;;;29.00;54.60;;;;;;6244694;23;20000;-77
2023/08/22 04:31:49;;;;;;;13.77;9.02;;;28.90;54.70;;;;;;6244558;23;20454;-76
2023/08/22 04:34:15;;;;;;;13.50;9.35;;;28.90;54.80;;;;;;6244498;23;20001;-77
2023/08/22 04:36:41;;;;;;;13.07;9.73;;;28.80;55.20;;;;;;6244763;23;20015;-77
2023/08/22 04:39:06;;;;;;;16.25;9.43;;;28.80;55.30;;;;;;6244834;23;20007;-77
2023/08/22 04:41:32;;;;;;;13.32;8.98;;;28.80;55.50;;;;;;6217174;23;20016;-76
2023/08/22 04:43:58;;;;;;;13.95;9.45;;;28.80;55.70;;;;;;6244558;23;20410;-77
2023/08/22 04:46:24;;;;;;;14.63;9.75;;;28.90;55.70;;;;;;6244429;23;20004;-77
2023/08/22 04:48:50;;;;;;;12.43;9.70;;;28.90;55.70;;;;;;6244471;23;20057;-77
2023/08/22 04:51:16;;;;;;;14.52;9.57;;;29.00;55.90;;;;;;6244501;23;20044;-76
2023/08/22 04:53:41;;;;;;;12.45;9.73;;;28.90;56.30;;;;;;6244414;23;20008;-76
2023/08/22 04:56:07;;;;;;;18.42;10.07;;;28.90;56.70;;;;;;6244342;23;20075;-77
2023/08/22 04:58:33;;;;;;;11.95;9.48;;;28.90;56.90;;;;;;6244231;23;20050;-77
2023/08/22 05:00:58;;;;;;;14.63;9.52;;;28.90;57.00;;;;;;6245060;23;20012;-76
2023/08/22 05:03:24;;;;;;;14.50;10.07;;;28.90;57.20;;;;;;6244424;23;19996;-75
2023/08/22 05:05:50;;;;;;;12.98;9.73;;;28.90;56.90;;;;;;6244094;23;20016;-76
2023/08/22 05:08:16;;;;;;;14.60;9.75;;;28.90;57.30;;;;;;6244145;23;20001;-77
2023/08/22 05:10:43;;;;;;;14.18;10.00;;;28.90;57.00;;;;;;6244261;23;20010;-76
2023/08/22 05:13:08;;;;;;;12.77;9.95;;;28.90;57.20;;;;;;6244422;23;19996;-75
2023/08/22 05:15:34;;;;;;;13.07;10.07;;;28.90;57.10;;;;;;6244212;23;20079;-76
2023/08/22 05:18:00;;;;;;;13.13;9.40;;;28.90;57.50;;;;;;6244154;23;19996;-76
2023/08/22 05:20:25;;;;;;;13.77;9.65;;;28.90;57.40;;;;;;6243956;23;20438;-77
2023/08/22 05:22:51;;;;;;;18.92;10.60;;;28.90;57.60;;;;;;6243977;23;20130;-76
2023/08/22 05:25:17;;;;;;;12.60;9.82;;;28.90;57.40;;;;;;6243958;23;20118;-77
2023/08/22 05:27:43;;;;;;;12.48;10.20;;;29.00;57.20;;;;;;6244034;23;20003;-76
2023/08/22 05:30:09;;;;;;;16.98;10.15;;;29.00;57.40;;;;;;6244522;23;20079;-76
2023/08/22 05:32:35;;;;;;;18.55;10.38;;;29.00;57.50;;;;;;6244132;23;20034;-76
2023/08/22 05:35:00;;;;;;;14.23;10.25;;;29.10;57.30;;;;;;6244646;23;20063;-77
2023/08/22 05:37:26;;;;;;;13.25;10.02;;;29.10;57.10;;;;;;6244345;23;20000;-77
2023/08/22 05:39:52;;;;;;;14.38;9.85;;;29.10;57.30;;;;;;6244387;23;20364;-77
2023/08/22 05:42:18;;;;;;;15.15;10.48;;;29.20;57.00;;;;;;6244440;23;20031;-75
2023/08/22 05:44:43;;;;;;;14.80;10.13;;;29.40;56.80;;;;;;6243990;23;20079;-78
2023/08/22 05:47:09;;;;;;;14.18;11.52;;;29.50;56.80;;;;;;6244101;23;20079;-77
2023/08/22 05:49:35;;;;;;;14.70;11.68;;;29.70;56.50;;;;;;6244085;23;20000;-79
2023/08/22 05:52:04;;;;;;;13.02;10.40;;;29.90;56.50;;;;;;6244322;23;20072;-77
2023/08/22 05:54:31;;;;;;;16.70;10.20;;;30.20;55.80;;;;;;6244890;23;20004;-77
2023/08/22 05:56:57;;;;;;;14.48;9.45;;;30.40;55.70;;;;;;6244665;23;19996;-76
2023/08/22 05:59:23;;;;;;;14.25;9.52;;;30.60;55.40;;;;;;6244799;23;20142;-77
2023/08/22 06:01:52;;;;;;;12.77;9.18;;;30.80;55.00;;;;;;6244598;23;20012;-76
2023/08/22 06:04:18;;;;;;;13.43;9.45;;;30.90;54.40;;;;;;6244146;23;20016;-78
2023/08/22 06:06:44;;;;;;;13.80;9.02;;;31.00;54.50;;;;;;6244202;23;20325;-77
2023/08/22 06:09:11;;;;;;;15.55;10.02;;;31.20;54.00;;;;;;6244282;23;20032;-76
2023/08/22 06:11:37;;;;;;;16.75;10.73;;;31.30;53.90;;;;;;6244336;23;20054;-77
2023/08/22 06:14:03;;;;;;;12.98;10.10;;;31.40;53.60;;;;;;6244352;23;19996;-77
2023/08/22 06:16:29;;;;;;;11.07;9.07;;;31.70;53.50;;;;;;6244067;23;20015;-77
2023/08/22 06:18:54;;;;;;;19.75;9.68;;;31.90;52.80;;;;;;6244178;23;20304;-77
2023/08/22 06:21:20;;;;;;;14.23;9.18;;;32.10;52.50;;;;;;6244241;23;20012;-77
2023/08/22 06:23:46;;;;;;;15.40;9.73;;;32.20;52.20;;;;;;6244223;23;20030;-76
2023/08/22 06:26:13;;;;;;;15.70;9.15;;;32.30;52.20;;;;;;6244171;23;20442;-77
2023/08/22 06:28:39;;;;;;;12.50;9.48;;;32.40;52.00;;;;;;6244462;23;20015;-77
2023/08/22 06:31:06;;;;;;;16.27;9.02;;;32.60;51.70;;;;;;6244232;23;20364;-77
2023/08/22 06:33:31;;;;;;;13.15;8.80;;;32.70;51.60;;;;;;6244417;23;20000;-76
2023/08/22 06:35:57;;;;;;;13.43;8.88;;;32.80;51.40;;;;;;6244410;23;20074;-76
2023/08/22 06:38:24;;;;;;;11.15;8.82;;;32.80;51.40;;;;;;6244584;23;20276;-77
2023/08/22 06:40:50;;;;;;;10.02;8.30;;;32.90;51.50;;;;;;6217841;23;20027;-76
2023/08/22 06:43:15;;;;;;;14.13;9.57;;;33.00;51.10;;;;;;6246868;23;20027;-78
2023/08/22 06:45:41;;;;;;;15.57;9.70;;;33.20;51.10;;;;;;6247692;23;20008;-78
2023/08/22 06:48:07;;;;;;;17.00;8.63;;;33.20;50.90;;;;;;6253685;23;20000;-78
2023/08/22 06:50:33;;;;;;;16.38;9.50;;;33.30;50.80;;;;;;6270061;23;19996;-77
2023/08/22 06:52:59;;;;;;;14.43;10.02;;;33.30;50.80;;;;;;6246720;23;20009;-77
2023/08/22 06:55:25;;;;;;;15.50;8.55;;;33.50;50.80;;;;;;6246558;23;20423;-76
2023/08/22 06:57:51;;;;;;;12.80;9.30;;;33.60;50.50;;;;;;6246193;23;20057;-75
2023/08/22 07:00:17;;;;;;;19.63;9.98;;;33.60;50.40;;;;;;6246238;23;20023;-77
2023/08/22 07:02:44;;;;;;;17.55;9.35;;;33.80;50.10;;;;;;6246185;23;20054;-75
2023/08/22 07:05:12;;;;;;;11.27;8.82;;;33.80;50.40;;;;;;6245715;23;20044;-76
2023/08/22 07:07:38;;;;;;;13.73;9.35;;;33.90;50.30;;;;;;6245941;23;20008;-77
2023/08/22 07:10:09;;;;;;;17.50;10.55;;;34.00;50.10;;;;;;6246157;23;20068;-77
2023/08/22 07:12:35;;;;;;;14.85;9.45;;;34.00;50.10;;;;;;6246797;23;20331;-76
2023/08/22 07:15:04;;;;;;;15.45;10.35;;;34.20;50.30;;;;;;6245918;23;20000;-76
2023/08/22 07:17:30;;;;;;;10.20;8.80;;;34.40;50.50;;;;;;6246321;23;20020;-77
2023/08/22 07:19:56;;;;;;;11.55;8.95;;;34.50;49.60;;;;;;6246108;23;20431;-78
2023/08/22 07:22:22;;;;;;;12.85;9.25;;;34.60;50.10;;;;;;6245609;23;20012;-78
2023/08/22 07:24:48;;;;;;;12.50;8.70;;;34.70;49.40;;;;;;6245907;23;19996;-77
2023/08/22 07:27:14;;;;;;;12.45;9.20;;;34.70;48.90;;;;;;6218651;23;20067;-79
2023/08/22 07:29:40;;;;;;;15.45;9.68;;;34.70;48.80;;;;;;6246087;23;20062;-78
2023/08/22 07:32:08;;;;;;;16.08;8.90;;;34.90;48.80;;;;;;6245870;23;20000;-77
2023/08/22 07:34:34;;;;;;;13.65;9.60;;;34.90;48.60;;;;;;6245964;23;20000;-77
2023/08/22 07:36:59;;;;;;;31.27;9.70;;;34.90;48.00;;;;;;6245925;23;20071;-78
2023/08/22 07:39:27;;;;;;;15.40;9.45;;;34.80;48.00;;;;;;6245665;23;20000;-78
2023/08/22 07:41:52;;;;;;;13.15;9.60;;;34.70;48.10;;;;;;6245591;23;20346;-78
2023/08/22 07:44:18;;;;;;;19.73;9.68;;;34.70;47.80;;;;;;6246076;23;20004;-78
2023/08/22 07:46:44;;;;;;;12.88;10.13;;;34.70;48.10;;;;;;6246212;23;20004;-77
2023/08/22 07:49:09;;;;;;;14.57;9.93;;;34.60;47.80;;;;;;6245589;23;20350;-78
2023/08/22 07:51:36;;;;;;;15.23;9.80;;;34.50;48.00;;;;;;6245906;23;20062;-78
2023/08/22 07:54:03;;;;;;;13.00;10.13;;;34.60;48.10;;;;;;6218540;23;20118;-78
2023/08/22 07:56:28;;;;;;;16.70;9.93;;;34.60;48.10;;;;;;6246007;23;20008;-76
2023/08/22 07:58:54;;;;;;;15.90;9.98;;;34.40;47.70;;;;;;6245768;23;20076;-76
2023/08/22 08:01:20;;;;;;;13.40;9.88;;;34.40;47.90;;;;;;6245388;23;20027;-77
2023/08/22 08:03:45;;;;;;;15.57;9.13;;;34.30;47.70;;;;;;6245495;23;20004;-76
2023/08/22 08:06:11;;;;;;;13.23;9.90;;;34.20;47.80;;;;;;6245966;23;20027;-77
2023/08/22 08:08:37;;;;;;;14.98;9.00;;;34.20;47.90;;;;;;6245973;23;20004;-76
2023/08/22 08:11:03;;;;;;;14.50;9.93;;;34.10;47.70;;;;;;6246873;23;20054;-76
2023/08/22 08:13:28;;;;;;;11.27;9.20;;;34.10;47.80;;;;;;6245908;23;20422;-77
2023/08/22 08:15:54;;;;;;;13.07;9.45;;;33.90;48.00;;;;;;6245878;23;20031;-78
2023/08/22 08:18:20;;;;;;;14.73;10.00;;;33.80;48.10;;;;;;6246380;23;20051;-78
2023/08/22 08:20:46;;;;;;;11.60;8.90;;;33.80;48.40;;;;;;6246738;23;20409;-77
2023/08/22 08:23:12;;;;;;;18.98;9.60;;;33.80;48.90;;;;;;6256240;23;19996;-76
2023/08/22 08:25:38;;;;;;;16.95;9.70;;;33.70;48.30;;;;;;6250157;23;20046;-77
2023/08/22 08:28:07;;;;;;;12.45;9.70;;;33.70;48.30;;;;;;6245532;23;20077;-76
2023/08/22 08:30:33;;;;;;;12.32;10.00;;;33.70;48.00;;;;;;6245161;23;20000;-77
2023/08/22 08:32:59;;;;;;;11.35;9.25;;;33.70;48.10;;;;;;6244758;23;19996;-77
2023/08/22 08:35:24;;;;;;;15.02;9.20;;;33.60;48.20;;;;;;6244773;23;20011;-77
2023/08/22 08:37:52;;;;;;;14.48;9.60;;;33.60;48.10;;;;;;6245132;23;20001;-76
2023/08/22 08:40:18;;;;;;;14.65;9.93;;;33.60;48.10;;;;;;6244579;23;20394;-74
2023/08/22 08:42:45;;;;;;;15.38;9.07;;;33.70;48.30;;;;;;6244892;23;20326;-78
2023/08/22 08:45:13;;;;;;;14.73;9.70;;;33.70;47.90;;;;;;6245072;23;20330;-76
2023/08/22 08:47:40;;;;;;;11.35;9.63;;;33.70;48.00;;;;;;6244508;23;20015;-76
2023/08/22 08:50:06;;;;;;;15.55;9.35;;;33.70;48.00;;;;;;6245037;23;20300;-78
2023/08/22 08:52:32;;;;;;;12.55;9.20;;;33.70;47.80;;;;;;6244834;23;19997;-77
2023/08/22 08:54:59;;;;;;;16.52;9.40;;;33.70;47.90;;;;;;6244886;23;20475;-77
2023/08/22 08:57:26;;;;;;;15.55;9.30;;;33.70;48.00;;;;;;6244627;23;20080;-77
2023/08/22 08:59:53;;;;;;;14.00;9.73;;;33.70;47.70;;;;;;6244678;23;20046;-77
2023/08/22 09:02:19;;;;;;;14.38;9.65;;;33.70;47.80;;;;;;6244748;23;20012;-76
2023/08/22 09:04:45;;;;;;;13.57;8.70;;;33.70;48.00;;;;;;6244280;23;20453;-77
2023/08/22 09:07:11;;;;;;;13.57;9.05;;;33.80;47.30;;;;;;6244799;23;20047;-78
2023/08/22 09:09:37;;;;;;;14.43;8.82;;;33.80;47.30;;;;;;6244997;23;19996;-77
2023/08/22 09:12:10;;;;;;;16.48;9.63;;;33.80;47.30;;;;;;6244879;23;20095;-74
2023/08/22 09:14:46;;;;;;;;;;;33.80;46.90;;;;;;6245368;23;20453;-77
2023/08/22 09:17:15;;;;;;;17.35;10.07;;;33.90;46.60;;;;;;6245312;23;19919;-76
2023/08/22 09:19:42;;;;;;;11.80;8.98;;;33.90;46.90;;;;;;6244866;23;20008;-76
2023/08/22 09:22:11;;;;;;;11.30;9.65;;;33.90;46.70;;;;;;6244448;23;20012;-78
2023/08/22 09:24:37;;;;;;;13.15;9.10;;;34.00;46.80;;;;;;6244654;23;19997;-75
2023/08/22 09:27:03;;;;;;;10.65;9.07;;;34.00;46.50;;;;;;6244349;23;20004;-78
2023/08/22 09:29:32;;;;;;;11.15;9.38;;;34.00;46.60;;;;;;6244917;23;20004;-79
2023/08/22 09:32:05;;;;;;;13.70;9.52;;;34.00;46.80;;;;;;6244761;23;20083;-77
2023/08/22 09:34:30;;;;;;;;;;;34.00;46.50;;;;;;6245238;23;20303;-77
2023/08/22 09:36:56;;;;;;;12.45;8.95;;;34.10;46.60;;;;;;6244768;23;19910;-76
2023/08/22 09:39:23;;;;;;;11.07;9.18;;;34.20;46.30;;;;;;6244329;23;20004;-78
2023/08/22 09:41:54;;;;;;;15.45;8.95;;;34.20;46.00;;;;;;6244702;23;20008;-78
2023/08/22 09:44:25;;;;;;;12.10;9.20;;;34.30;45.50;;;;;;6244915;23;20000;-78
2023/08/22 09:46:52;;;;;;;12.30;9.18;;;34.40;45.70;;;;;;6245178;23;20015;-77
2023/08/22 09:49:18;;;;;;;13.20;9.80;;;34.40;45.60;;;;;;6244703;23;19997;-79
2023/08/22 09:51:49;;;;;;;12.93;9.55;;;34.40;45.30;;;;;;6244580;23;20015;-77
2023/08/22 09:54:15;;;;;;;18.85;9.52;;;34.50;45.50;;;;;;6244473;23;20035;-79
2023/08/22 09:56:41;;;;;;;14.07;9.57;;;34.60;45.30;;;;;;6252867;23;20000;-78
2023/08/22 09:59:07;;;;;;;13.38;9.32;;;34.60;45.30;;;;;;6260794;23;20023;-77
2023/08/22 10:01:37;;;;;;;18.38;10.57;;;34.60;45.10;;;;;;6245652;23;20454;-77
2023/08/22 10:04:03;;;;;;;10.88;9.75;;;34.70;44.90;;;;;;6244829;23;20099;-77
2023/08/22 10:06:34;;;;;;;14.70;9.55;;;34.70;44.70;;;;;;6244226;23;20050;-77
2023/08/22 10:09:07;;;;;;;16.00;10.90;;;34.80;44.40;;;;;;6244894;23;20280;-78
2023/08/22 10:11:35;;;;;;;;;;;34.90;44.30;;;;;;6244778;23;20043;-77
2023/08/22 10:14:01;;;;;;;13.30;10.05;;;34.90;44.10;;;;;;6244802;23;19900;-77
2023/08/22 10:16:30;;;;;;;13.68;9.65;;;34.90;44.20;;;;;;6245286;23;20052;-78
2023/08/22 10:19:02;;;;;;;13.38;9.73;;;35.00;44.10;;;;;;6246752;23;20000;-77
2023/08/22 10:21:41;;;;;;;15.93;9.98;;;35.10;43.90;;;;;;6219684;23;20035;-78
2023/08/22 10:24:07;;;;;;;12.27;9.00;;;35.10;43.70;;;;;;6246579;23;20004;-77
2023/08/22 10:27:19;;;;;;;12.25;9.13;;;35.20;43.90;;;;;;6246726;23;20019;-78
2023/08/22 10:30:18;;;;;;;10.65;8.85;;;35.30;44.20;;;;;;6230443;23;20008;-77
2023/08/22 10:33:03;;;;;;;16.10;10.25;;;35.30;43.80;;;;;;6246532;23;20334;-75
2023/08/22 10:35:29;;;;;;;16.40;10.27;;;35.40;43.30;;;;;;6246046;23;20330;-77
2023/08/22 10:37:56;;;;;;;13.45;9.57;;;35.40;42.80;;;;;;6246077;23;20050;-76
2023/08/22 10:40:29;;;;;;;11.70;9.10;;;35.50;42.60;;;;;;6246118;23;20059;-77
2023/08/22 10:43:10;;;;;;;12.60;9.57;;;35.60;42.50;;;;;;6246512;23;20004;-79
2023/08/22 10:45:40;;;;;;;13.23;9.32;;;35.60;42.40;;;;;;6246779;23;20072;-77
2023/08/22 10:48:11;;;;;;;12.15;9.13;;;35.60;43.20;;;;;;6246590;23;20004;-77
2023/08/22 10:50:39;;;;;;;13.20;9.25;;;35.70;42.00;;;;;;6246770;23;20004;-78
2023/08/22 10:53:12;;;;;;;10.60;8.48;;;35.70;41.60;;;;;;6246698;23;20000;-76
2023/08/22 10:55:38;;;;;;;10.38;8.57;;;35.80;41.00;;;;;;6246886;23;20167;-78
2023/08/22 10:58:04;;;;;;;11.52;8.82;;;35.90;41.20;;;;;;6246572;23;20011;-78
2023/08/22 11:00:31;;;;;;;12.48;8.82;;;35.90;41.00;;;;;;6246424;23;20004;-78
2023/08/22 11:02:58;;;;;;;12.85;9.23;;;35.90;41.00;;;;;;6246289;23;20099;-76
2023/08/22 11:05:25;;;;;;;13.27;9.00;;;36.00;40.70;;;;;;6246014;23;20016;-76
2023/08/22 11:07:53;;;;;;;12.50;9.10;;;36.00;40.50;;;;;;6246298;23;20020;-77
2023/08/22 11:10:24;;;;;;;11.43;8.32;;;36.20;40.20;;;;;;6246389;23;20016;-78
2023/08/22 11:12:53;;;;;;;13.10;8.43;;;36.30;40.30;;;;;;6246111;23;20460;-76
2023/08/22 11:15:19;;;;;;;11.82;8.13;;;36.30;39.20;;;;;;6246385;23;20003;-77
2023/08/22 11:17:46;;;;;;;10.50;8.52;;;36.40;39.30;;;;;;6246568;23;20004;-78
2023/08/22 11:20:20;;;;;;;11.32;8.82;;;36.50;39.20;;;;;;6246444;23;20028;-79
2023/08/22 11:22:46;;;;;;;14.65;9.10;;;36.50;40.00;;;;;;6246181;23;20525;-79
2023/08/22 11:25:13;;;;;;;12.68;8.50;;;36.60;39.60;;;;;;6247732;23;20074;-76
2023/08/22 11:27:40;;;;;;;13.57;9.15;;;36.60;39.50;;;;;;6219071;23;20426;-77
2023/08/22 11:30:07;;;;;;;18.75;9.90;;;36.70;39.50;;;;;;6245617;23;20050;-77
2023/08/22 11:32:38;;;;;;;13.27;9.68;;;36.70;40.00;;;;;;6246102;23;20381;-78
2023/08/22 11:35:05;;;;;;;13.18;9.23;;;36.70;40.10;;;;;;6245414;23;20004;-78
2023/08/22 11:37:37;;;;;;;11.98;9.98;;;36.70;40.40;;;;;;6245771;23;19997;-78
2023/08/22 11:40:04;;;;;;;12.65;8.77;;;36.80;41.00;;;;;;6245644;23;20032;-76
2023/08/22 11:42:32;;;;;;;10.68;9.40;;;36.80;40.50;;;;;;6245284;23;20016;-79
2023/08/22 11:45:04;;;;;;;12.05;9.00;;;36.80;40.30;;;;;;6245501;23;19996;-77
2023/08/22 11:47:39;;;;;;;12.02;9.68;;;36.90;41.00;;;;;;6245825;23;20430;-78
2023/08/22 11:50:06;;;;;;;12.13;9.98;;;36.90;40.90;;;;;;6246081;23;20397;-77
2023/08/22 11:52:32;;;;;;;12.52;9.50;;;36.90;40.30;;;;;;6246159;23;20015;-75
2023/08/22 11:55:21;;;;;;;11.30;9.50;;;36.90;40.30;;;;;;6245821;23;20410;-77
2023/08/22 11:57:50;;;;;;;11.23;9.23;;;36.90;40.10;;;;;;6245575;23;20079;-76
2023/08/22 12:00:16;;;;;;;11.32;9.50;;;36.90;40.20;;;;;;6245167;23;20011;-78
2023/08/22 12:02:52;;;;;;;10.95;8.98;;;36.90;40.30;;;;;;6245415;23;20085;-78
2023/08/22 12:05:35;;;;;;;12.40;9.05;;;36.90;40.20;;;;;;6245146;23;20016;-77
2023/08/22 12:08:07;;;;;;;10.77;8.57;;;36.80;40.80;;;;;;6245414;23;20000;-78
2023/08/22 12:10:52;;;;;;;11.10;8.60;;;36.80;40.50;;;;;;6245263;23;20001;-79
2023/08/22 12:13:20;;;;;;;10.93;8.68;;;36.70;41.10;;;;;;6245729;23;20015;-77
2023/08/22 12:15:47;;;;;;;11.75;8.43;;;36.60;40.60;;;;;;6245569;23;20011;-77
2023/08/22 12:18:12;;;;;;;13.40;8.45;;;36.60;40.80;;;;;;6245501;23;20032;-77
2023/08/22 12:20:40;;;;;;;12.50;9.25;;;36.70;41.10;;;;;;6245243;23;20004;-77
2023/08/22 12:23:07;;;;;;;10.52;9.10;;;36.70;40.80;;;;;;6245075;23;20080;-77
2023/08/22 12:25:34;;;;;;;14.98;9.20;;;36.70;40.80;;;;;;6245322;23;20000;-78
2023/08/22 12:28:03;;;;;;;10.75;9.13;;;36.80;40.90;;;;;;6245283;23;20065;-79
2023/08/22 12:30:30;;;;;;;10.77;8.85;;;36.80;40.90;;;;;;6245224;23;20000;-78
2023/08/22 12:32:56;;;;;;;10.00;9.00;;;36.90;41.00;;;;;;6245039;23;20000;-77
2023/08/22 12:35:22;;;;;;;9.82;8.82;;;37.00;40.80;;;;;;6245060;23;20005;-78
2023/08/22 12:37:47;;;;;;;10.77;8.68;;;36.90;40.70;;;;;;6245091;23;20107;-77